sensor_id;sensor_type;location;lat;lon;timestamp;P1;durP1;ratioP1;P2;durP2;ratioP2
20711;SDS011;10517;50.742;4.224;2023-02-07T00:01:26;16.50;;;4.03;;
20711;SDS011;10517;50.742;4.224;2023-02-07T00:03:52;12.27;;;3.80;;
20711;SDS011;10517;50.742;4.224;2023-02-07T00:06:21;11.43;;;3.43;;
20711;SDS011;10517;50.742;4.224;2023-02-07T00:08:53;19.17;;;4.93;;
20711;SDS011;10517;50.742;4.224;2023-02-07T00:11:19;18.00;;;4.07;;
20711;SDS011;10517;50.742;4.224;2023-02-07T00:13:47;11.50;;;3.30;;
20711;SDS011;10517;50.742;4.224;2023-02-07T00:16:14;12.60;;;3.73;;
20711;SDS011;10517;50.742;4.224;2023-02-07T00:18:40;8.53;;;3.97;;
20711;SDS011;10517;50.742;4.224;2023-02-07T00:21:07;13.20;;;3.67;;
20711;SDS011;10517;50.742;4.224;2023-02-07T00:23:34;10.80;;;3.20;;
20711;SDS011;10517;50.742;4.224;2023-02-07T00:26:02;13.00;;;4.63;;
20711;SDS011;10517;50.742;4.224;2023-02-07T00:28:30;23.67;;;5.87;;
20711;SDS011;10517;50.742;4.224;2023-02-07T00:31:06;23.17;;;4.90;;
20711;SDS011;10517;50.742;4.224;2023-02-07T00:33:35;11.63;;;4.37;;
20711;SDS011;10517;50.742;4.224;2023-02-07T00:36:03;21.20;;;4.67;;
20711;SDS011;10517;50.742;4.224;2023-02-07T00:38:31;10.57;;;3.47;;
20711;SDS011;10517;50.742;4.224;2023-02-07T00:40:57;11.47;;;4.23;;
20711;SDS011;10517;50.742;4.224;2023-02-07T00:43:25;14.33;;;3.83;;
20711;SDS011;10517;50.742;4.224;2023-02-07T00:45:51;15.47;;;5.00;;
20711;SDS011;10517;50.742;4.224;2023-02-07T00:48:16;16.67;;;4.53;;
20711;SDS011;10517;50.742;4.224;2023-02-07T00:50:42;10.37;;;4.10;;
20711;SDS011;10517;50.742;4.224;2023-02-07T00:53:08;15.77;;;3.70;;
20711;SDS011;10517;50.742;4.224;2023-02-07T00:55:33;9.93;;;4.33;;
20711;SDS011;10517;50.742;4.224;2023-02-07T00:57:59;13.93;;;4.73;;
20711;SDS011;10517;50.742;4.224;2023-02-07T01:00:24;16.73;;;4.97;;
20711;SDS011;10517;50.742;4.224;2023-02-07T01:02:50;17.23;;;5.07;;
20711;SDS011;10517;50.742;4.224;2023-02-07T01:05:15;16.90;;;5.07;;
20711;SDS011;10517;50.742;4.224;2023-02-07T01:07:41;15.57;;;3.83;;
20711;SDS011;10517;50.742;4.224;2023-02-07T01:10:07;15.60;;;5.40;;
20711;SDS011;10517;50.742;4.224;2023-02-07T01:12:34;15.53;;;4.73;;
20711;SDS011;10517;50.742;4.224;2023-02-07T01:15:00;21.13;;;5.50;;
20711;SDS011;10517;50.742;4.224;2023-02-07T01:17:25;17.30;;;5.60;;
20711;SDS011;10517;50.742;4.224;2023-02-07T01:19:55;16.00;;;5.83;;
20711;SDS011;10517;50.742;4.224;2023-02-07T01:22:22;12.60;;;5.53;;
20711;SDS011;10517;50.742;4.224;2023-02-07T01:24:48;10.13;;;4.80;;
20711;SDS011;10517;50.742;4.224;2023-02-07T01:27:14;15.87;;;4.63;;
20711;SDS011;10517;50.742;4.224;2023-02-07T01:29:39;19.63;;;5.40;;
20711;SDS011;10517;50.742;4.224;2023-02-07T01:32:05;17.57;;;4.70;;
20711;SDS011;10517;50.742;4.224;2023-02-07T01:34:30;19.10;;;5.40;;
20711;SDS011;10517;50.742;4.224;2023-02-07T01:36:56;17.00;;;5.77;;
20711;SDS011;10517;50.742;4.224;2023-02-07T01:39:21;19.13;;;6.77;;
20711;SDS011;10517;50.742;4.224;2023-02-07T01:41:47;19.57;;;6.17;;
20711;SDS011;10517;50.742;4.224;2023-02-07T01:46:49;14.70;;;4.80;;
20711;SDS011;10517;50.742;4.224;2023-02-07T01:49:16;14.00;;;5.53;;
20711;SDS011;10517;50.742;4.224;2023-02-07T01:51:45;14.70;;;6.07;;
20711;SDS011;10517;50.742;4.224;2023-02-07T01:54:17;21.60;;;7.27;;
20711;SDS011;10517;50.742;4.224;2023-02-07T01:56:46;17.97;;;5.40;;
20711;SDS011;10517;50.742;4.224;2023-02-07T01:59:17;17.60;;;6.43;;
20711;SDS011;10517;50.742;4.224;2023-02-07T02:01:44;14.77;;;6.27;;
20711;SDS011;10517;50.742;4.224;2023-02-07T02:04:10;17.60;;;5.93;;
20711;SDS011;10517;50.742;4.224;2023-02-07T02:06:36;17.07;;;6.37;;
20711;SDS011;10517;50.742;4.224;2023-02-07T02:09:08;18.50;;;6.93;;
20711;SDS011;10517;50.742;4.224;2023-02-07T02:23:14;15.03;;;6.50;;
20711;SDS011;10517;50.742;4.224;2023-02-07T02:37:33;23.20;;;6.00;;
20711;SDS011;10517;50.742;4.224;2023-02-07T02:40:20;14.80;;;6.20;;
20711;SDS011;10517;50.742;4.224;2023-02-07T02:43:27;16.77;;;5.43;;
20711;SDS011;10517;50.742;4.224;2023-02-07T02:46:17;19.93;;;6.03;;
20711;SDS011;10517;50.742;4.224;2023-02-07T02:48:50;18.67;;;6.50;;
20711;SDS011;10517;50.742;4.224;2023-02-07T02:51:17;19.50;;;6.67;;
20711;SDS011;10517;50.742;4.224;2023-02-07T02:53:52;21.87;;;6.53;;
20711;SDS011;10517;50.742;4.224;2023-02-07T03:07:35;13.57;;;6.23;;
20711;SDS011;10517;50.742;4.224;2023-02-07T03:10:17;20.77;;;4.97;;
20711;SDS011;10517;50.742;4.224;2023-02-07T03:15:48;16.20;;;5.37;;
20711;SDS011;10517;50.742;4.224;2023-02-07T03:21:35;19.40;;;6.27;;
20711;SDS011;10517;50.742;4.224;2023-02-07T03:24:06;14.30;;;5.70;;
20711;SDS011;10517;50.742;4.224;2023-02-07T03:26:37;16.47;;;5.83;;
20711;SDS011;10517;50.742;4.224;2023-02-07T03:29:05;20.77;;;6.00;;
20711;SDS011;10517;50.742;4.224;2023-02-07T03:31:32;22.47;;;6.20;;
20711;SDS011;10517;50.742;4.224;2023-02-07T03:34:05;17.00;;;6.00;;
20711;SDS011;10517;50.742;4.224;2023-02-07T03:36:42;12.73;;;6.30;;
20711;SDS011;10517;50.742;4.224;2023-02-07T03:39:17;13.63;;;6.00;;
20711;SDS011;10517;50.742;4.224;2023-02-07T03:41:44;11.23;;;6.37;;
20711;SDS011;10517;50.742;4.224;2023-02-07T03:44:16;21.27;;;6.77;;
20711;SDS011;10517;50.742;4.224;2023-02-07T03:46:48;16.17;;;5.70;;
20711;SDS011;10517;50.742;4.224;2023-02-07T03:49:14;13.40;;;6.17;;
20711;SDS011;10517;50.742;4.224;2023-02-07T03:51:42;21.80;;;7.23;;
20711;SDS011;10517;50.742;4.224;2023-02-07T03:54:08;22.17;;;7.43;;
20711;SDS011;10517;50.742;4.224;2023-02-07T03:56:34;22.30;;;6.70;;
20711;SDS011;10517;50.742;4.224;2023-02-07T03:59:00;20.63;;;6.93;;
20711;SDS011;10517;50.742;4.224;2023-02-07T04:01:26;13.87;;;6.43;;
20711;SDS011;10517;50.742;4.224;2023-02-07T04:03:51;15.50;;;6.70;;
20711;SDS011;10517;50.742;4.224;2023-02-07T04:06:17;22.83;;;6.87;;
20711;SDS011;10517;50.742;4.224;2023-02-07T04:08:43;15.83;;;6.93;;
20711;SDS011;10517;50.742;4.224;2023-02-07T04:11:08;13.90;;;5.53;;
20711;SDS011;10517;50.742;4.224;2023-02-07T04:13:34;18.00;;;6.40;;
20711;SDS011;10517;50.742;4.224;2023-02-07T04:16:00;22.23;;;6.40;;
20711;SDS011;10517;50.742;4.224;2023-02-07T04:18:25;19.23;;;5.83;;
20711;SDS011;10517;50.742;4.224;2023-02-07T04:20:51;18.27;;;6.83;;
20711;SDS011;10517;50.742;4.224;2023-02-07T04:23:23;15.27;;;6.00;;
20711;SDS011;10517;50.742;4.224;2023-02-07T04:25:49;22.87;;;6.53;;
20711;SDS011;10517;50.742;4.224;2023-02-07T04:28:14;15.20;;;6.70;;
20711;SDS011;10517;50.742;4.224;2023-02-07T04:30:40;22.00;;;6.87;;
20711;SDS011;10517;50.742;4.224;2023-02-07T04:33:05;16.23;;;6.67;;
20711;SDS011;10517;50.742;4.224;2023-02-07T04:35:31;11.60;;;5.37;;
20711;SDS011;10517;50.742;4.224;2023-02-07T04:37:57;22.37;;;7.83;;
20711;SDS011;10517;50.742;4.224;2023-02-07T04:40:22;11.10;;;5.43;;
20711;SDS011;10517;50.742;4.224;2023-02-07T04:42:48;30.10;;;8.40;;
20711;SDS011;10517;50.742;4.224;2023-02-07T04:45:13;16.33;;;7.20;;
20711;SDS011;10517;50.742;4.224;2023-02-07T04:47:39;15.30;;;6.83;;
20711;SDS011;10517;50.742;4.224;2023-02-07T04:50:05;33.37;;;6.63;;
20711;SDS011;10517;50.742;4.224;2023-02-07T04:52:30;16.60;;;5.93;;
20711;SDS011;10517;50.742;4.224;2023-02-07T04:54:56;21.23;;;7.33;;
20711;SDS011;10517;50.742;4.224;2023-02-07T04:57:21;21.90;;;6.87;;
20711;SDS011;10517;50.742;4.224;2023-02-07T04:59:47;12.33;;;6.77;;
20711;SDS011;10517;50.742;4.224;2023-02-07T05:02:12;20.47;;;7.97;;
20711;SDS011;10517;50.742;4.224;2023-02-07T05:04:38;22.47;;;8.00;;
20711;SDS011;10517;50.742;4.224;2023-02-07T05:07:04;14.17;;;6.90;;
20711;SDS011;10517;50.742;4.224;2023-02-07T05:09:29;14.87;;;6.93;;
20711;SDS011;10517;50.742;4.224;2023-02-07T05:11:55;24.70;;;8.70;;
20711;SDS011;10517;50.742;4.224;2023-02-07T05:14:20;19.00;;;8.07;;
20711;SDS011;10517;50.742;4.224;2023-02-07T05:16:46;20.37;;;7.07;;
20711;SDS011;10517;50.742;4.224;2023-02-07T05:19:12;31.53;;;8.67;;
20711;SDS011;10517;50.742;4.224;2023-02-07T05:21:37;21.70;;;8.00;;
20711;SDS011;10517;50.742;4.224;2023-02-07T05:24:03;24.30;;;8.37;;
20711;SDS011;10517;50.742;4.224;2023-02-07T05:26:28;25.20;;;7.97;;
20711;SDS011;10517;50.742;4.224;2023-02-07T05:28:54;24.83;;;8.60;;
20711;SDS011;10517;50.742;4.224;2023-02-07T05:31:20;19.77;;;8.30;;
20711;SDS011;10517;50.742;4.224;2023-02-07T05:34:05;19.07;;;8.07;;
20711;SDS011;10517;50.742;4.224;2023-02-07T05:36:31;16.37;;;6.23;;
20711;SDS011;10517;50.742;4.224;2023-02-07T05:38:57;21.63;;;8.27;;
20711;SDS011;10517;50.742;4.224;2023-02-07T05:41:22;15.47;;;8.43;;
20711;SDS011;10517;50.742;4.224;2023-02-07T05:43:48;22.90;;;8.07;;
20711;SDS011;10517;50.742;4.224;2023-02-07T05:46:13;27.90;;;8.10;;
20711;SDS011;10517;50.742;4.224;2023-02-07T05:48:45;20.60;;;8.60;;
20711;SDS011;10517;50.742;4.224;2023-02-07T05:51:11;23.00;;;7.73;;
20711;SDS011;10517;50.742;4.224;2023-02-07T05:53:36;25.80;;;8.43;;
20711;SDS011;10517;50.742;4.224;2023-02-07T05:56:02;15.90;;;8.10;;
20711;SDS011;10517;50.742;4.224;2023-02-07T05:58:27;25.27;;;8.33;;
20711;SDS011;10517;50.742;4.224;2023-02-07T06:00:53;17.23;;;7.87;;
20711;SDS011;10517;50.742;4.224;2023-02-07T06:03:19;25.33;;;9.30;;
20711;SDS011;10517;50.742;4.224;2023-02-07T06:05:45;26.93;;;7.30;;
20711;SDS011;10517;50.742;4.224;2023-02-07T06:08:10;27.37;;;7.93;;
20711;SDS011;10517;50.742;4.224;2023-02-07T06:10:36;40.20;;;8.67;;
20711;SDS011;10517;50.742;4.224;2023-02-07T06:13:01;21.30;;;7.57;;
20711;SDS011;10517;50.742;4.224;2023-02-07T06:15:27;44.93;;;9.90;;
20711;SDS011;10517;50.742;4.224;2023-02-07T06:17:53;21.97;;;9.23;;
20711;SDS011;10517;50.742;4.224;2023-02-07T06:20:19;37.90;;;9.50;;
20711;SDS011;10517;50.742;4.224;2023-02-07T06:22:44;18.40;;;8.43;;
20711;SDS011;10517;50.742;4.224;2023-02-07T06:25:10;37.93;;;7.87;;
20711;SDS011;10517;50.742;4.224;2023-02-07T06:27:39;69.93;;;7.27;;
20711;SDS011;10517;50.742;4.224;2023-02-07T06:30:06;50.13;;;8.57;;
20711;SDS011;10517;50.742;4.224;2023-02-07T06:32:32;35.00;;;8.70;;
20711;SDS011;10517;50.742;4.224;2023-02-07T06:34:58;71.57;;;9.07;;
20711;SDS011;10517;50.742;4.224;2023-02-07T06:37:24;66.53;;;9.47;;
20711;SDS011;10517;50.742;4.224;2023-02-07T06:39:49;62.67;;;8.20;;
20711;SDS011;10517;50.742;4.224;2023-02-07T06:42:15;44.30;;;7.03;;
20711;SDS011;10517;50.742;4.224;2023-02-07T06:44:40;44.33;;;9.23;;
20711;SDS011;10517;50.742;4.224;2023-02-07T06:47:06;38.70;;;7.93;;
20711;SDS011;10517;50.742;4.224;2023-02-07T06:49:31;75.97;;;8.70;;
20711;SDS011;10517;50.742;4.224;2023-02-07T06:51:57;68.67;;;8.20;;
20711;SDS011;10517;50.742;4.224;2023-02-07T06:54:23;76.43;;;9.33;;
20711;SDS011;10517;50.742;4.224;2023-02-07T06:56:48;97.50;;;9.27;;
20711;SDS011;10517;50.742;4.224;2023-02-07T06:59:14;40.63;;;7.67;;
20711;SDS011;10517;50.742;4.224;2023-02-07T07:01:40;58.73;;;7.97;;
20711;SDS011;10517;50.742;4.224;2023-02-07T07:04:06;52.47;;;8.77;;
20711;SDS011;10517;50.742;4.224;2023-02-07T07:06:31;24.10;;;8.47;;
20711;SDS011;10517;50.742;4.224;2023-02-07T07:08:57;50.47;;;9.77;;
20711;SDS011;10517;50.742;4.224;2023-02-07T07:11:22;34.63;;;8.60;;
20711;SDS011;10517;50.742;4.224;2023-02-07T07:13:48;36.00;;;8.53;;
20711;SDS011;10517;50.742;4.224;2023-02-07T07:16:14;54.93;;;7.53;;
20711;SDS011;10517;50.742;4.224;2023-02-07T07:18:39;41.03;;;7.50;;
20711;SDS011;10517;50.742;4.224;2023-02-07T07:21:05;28.27;;;6.63;;
20711;SDS011;10517;50.742;4.224;2023-02-07T07:23:32;38.87;;;8.40;;
20711;SDS011;10517;50.742;4.224;2023-02-07T07:25:57;27.77;;;7.07;;
20711;SDS011;10517;50.742;4.224;2023-02-07T07:28:23;43.40;;;7.63;;
20711;SDS011;10517;50.742;4.224;2023-02-07T07:30:49;37.97;;;7.40;;
20711;SDS011;10517;50.742;4.224;2023-02-07T07:33:14;37.40;;;6.57;;
20711;SDS011;10517;50.742;4.224;2023-02-07T07:35:40;35.13;;;6.53;;
20711;SDS011;10517;50.742;4.224;2023-02-07T07:38:06;28.37;;;6.60;;
20711;SDS011;10517;50.742;4.224;2023-02-07T07:40:32;71.23;;;7.70;;
20711;SDS011;10517;50.742;4.224;2023-02-07T07:42:57;67.07;;;7.40;;
20711;SDS011;10517;50.742;4.224;2023-02-07T07:45:23;20.17;;;5.73;;
20711;SDS011;10517;50.742;4.224;2023-02-07T07:47:49;18.33;;;6.30;;
20711;SDS011;10517;50.742;4.224;2023-02-07T07:50:14;51.83;;;7.60;;
20711;SDS011;10517;50.742;4.224;2023-02-07T07:52:40;24.90;;;6.53;;
20711;SDS011;10517;50.742;4.224;2023-02-07T07:55:07;32.00;;;7.43;;
20711;SDS011;10517;50.742;4.224;2023-02-07T07:57:33;23.03;;;7.30;;
20711;SDS011;10517;50.742;4.224;2023-02-07T07:59:58;29.50;;;7.20;;
20711;SDS011;10517;50.742;4.224;2023-02-07T08:02:24;30.77;;;7.50;;
20711;SDS011;10517;50.742;4.224;2023-02-07T08:04:50;34.77;;;8.67;;
20711;SDS011;10517;50.742;4.224;2023-02-07T08:07:16;30.60;;;7.93;;
20711;SDS011;10517;50.742;4.224;2023-02-07T08:09:41;37.37;;;7.80;;
20711;SDS011;10517;50.742;4.224;2023-02-07T08:12:07;31.80;;;8.03;;
20711;SDS011;10517;50.742;4.224;2023-02-07T08:14:33;33.60;;;7.77;;
20711;SDS011;10517;50.742;4.224;2023-02-07T08:16:58;18.53;;;7.93;;
20711;SDS011;10517;50.742;4.224;2023-02-07T08:19:24;24.33;;;8.20;;
20711;SDS011;10517;50.742;4.224;2023-02-07T08:21:49;24.40;;;8.73;;
20711;SDS011;10517;50.742;4.224;2023-02-07T08:24:15;22.10;;;9.37;;
20711;SDS011;10517;50.742;4.224;2023-02-07T08:26:40;26.50;;;9.17;;
20711;SDS011;10517;50.742;4.224;2023-02-07T08:29:06;29.53;;;9.37;;
20711;SDS011;10517;50.742;4.224;2023-02-07T08:31:32;29.97;;;8.37;;
20711;SDS011;10517;50.742;4.224;2023-02-07T08:33:57;23.13;;;8.47;;
20711;SDS011;10517;50.742;4.224;2023-02-07T08:36:23;19.83;;;7.67;;
20711;SDS011;10517;50.742;4.224;2023-02-07T08:38:49;19.70;;;7.37;;
20711;SDS011;10517;50.742;4.224;2023-02-07T08:41:15;20.90;;;8.93;;
20711;SDS011;10517;50.742;4.224;2023-02-07T08:43:41;21.90;;;8.47;;
20711;SDS011;10517;50.742;4.224;2023-02-07T08:46:06;25.27;;;9.10;;
20711;SDS011;10517;50.742;4.224;2023-02-07T08:48:32;20.37;;;8.03;;
20711;SDS011;10517;50.742;4.224;2023-02-07T08:51:02;24.70;;;9.67;;
20711;SDS011;10517;50.742;4.224;2023-02-07T08:53:32;20.80;;;8.23;;
20711;SDS011;10517;50.742;4.224;2023-02-07T08:55:58;21.43;;;9.10;;
20711;SDS011;10517;50.742;4.224;2023-02-07T08:58:24;19.20;;;7.10;;
20711;SDS011;10517;50.742;4.224;2023-02-07T09:00:49;20.77;;;8.20;;
20711;SDS011;10517;50.742;4.224;2023-02-07T09:03:15;20.73;;;8.17;;
20711;SDS011;10517;50.742;4.224;2023-02-07T09:05:40;20.87;;;8.97;;
20711;SDS011;10517;50.742;4.224;2023-02-07T09:08:06;19.50;;;8.43;;
20711;SDS011;10517;50.742;4.224;2023-02-07T09:10:32;28.13;;;8.77;;
20711;SDS011;10517;50.742;4.224;2023-02-07T09:12:57;21.43;;;9.20;;
20711;SDS011;10517;50.742;4.224;2023-02-07T09:15:23;25.77;;;8.13;;
20711;SDS011;10517;50.742;4.224;2023-02-07T09:17:49;21.37;;;9.07;;
20711;SDS011;10517;50.742;4.224;2023-02-07T09:20:15;21.67;;;8.53;;
20711;SDS011;10517;50.742;4.224;2023-02-07T09:22:41;17.37;;;7.70;;
20711;SDS011;10517;50.742;4.224;2023-02-07T09:25:25;23.20;;;8.43;;
20711;SDS011;10517;50.742;4.224;2023-02-07T09:27:50;23.10;;;8.03;;
20711;SDS011;10517;50.742;4.224;2023-02-07T09:30:16;17.40;;;8.47;;
20711;SDS011;10517;50.742;4.224;2023-02-07T09:32:42;20.67;;;8.10;;
20711;SDS011;10517;50.742;4.224;2023-02-07T09:35:07;21.57;;;7.47;;
20711;SDS011;10517;50.742;4.224;2023-02-07T09:37:34;19.47;;;7.87;;
20711;SDS011;10517;50.742;4.224;2023-02-07T09:40:03;15.60;;;6.97;;
20711;SDS011;10517;50.742;4.224;2023-02-07T09:42:32;18.67;;;7.50;;
20711;SDS011;10517;50.742;4.224;2023-02-07T09:45:08;16.40;;;6.90;;
20711;SDS011;10517;50.742;4.224;2023-02-07T09:47:38;18.03;;;8.23;;
20711;SDS011;10517;50.742;4.224;2023-02-07T09:50:11;18.83;;;8.10;;
20711;SDS011;10517;50.742;4.224;2023-02-07T09:52:38;16.60;;;6.30;;
20711;SDS011;10517;50.742;4.224;2023-02-07T09:55:17;19.23;;;7.73;;
20711;SDS011;10517;50.742;4.224;2023-02-07T10:06:36;15.00;;;6.63;;
20711;SDS011;10517;50.742;4.224;2023-02-07T10:09:07;18.53;;;7.23;;
20711;SDS011;10517;50.742;4.224;2023-02-07T10:17:49;16.50;;;5.80;;
20711;SDS011;10517;50.742;4.224;2023-02-07T10:31:32;12.27;;;5.47;;
20711;SDS011;10517;50.742;4.224;2023-02-07T10:34:20;10.97;;;5.03;;
20711;SDS011;10517;50.742;4.224;2023-02-07T10:36:49;16.03;;;5.80;;
20711;SDS011;10517;50.742;4.224;2023-02-07T10:39:24;11.13;;;4.93;;
20711;SDS011;10517;50.742;4.224;2023-02-07T10:41:54;8.73;;;4.60;;
20711;SDS011;10517;50.742;4.224;2023-02-07T10:44:21;12.50;;;4.73;;
20711;SDS011;10517;50.742;4.224;2023-02-07T10:46:58;15.07;;;5.27;;
20711;SDS011;10517;50.742;4.224;2023-02-07T10:49:27;11.50;;;4.00;;
20711;SDS011;10517;50.742;4.224;2023-02-07T10:52:02;18.20;;;5.43;;
20711;SDS011;10517;50.742;4.224;2023-02-07T10:55:00;16.80;;;5.97;;
20711;SDS011;10517;50.742;4.224;2023-02-07T10:57:26;8.23;;;4.07;;
20711;SDS011;10517;50.742;4.224;2023-02-07T10:59:58;24.50;;;4.97;;
20711;SDS011;10517;50.742;4.224;2023-02-07T11:02:36;14.10;;;5.13;;
20711;SDS011;10517;50.742;4.224;2023-02-07T11:07:40;7.10;;;4.13;;
20711;SDS011;10517;50.742;4.224;2023-02-07T11:10:20;16.93;;;6.70;;
20711;SDS011;10517;50.742;4.224;2023-02-07T11:12:55;13.37;;;4.07;;
20711;SDS011;10517;50.742;4.224;2023-02-07T11:15:23;4.33;;;2.93;;
20711;SDS011;10517;50.742;4.224;2023-02-07T11:17:55;6.43;;;3.67;;
20711;SDS011;10517;50.742;4.224;2023-02-07T11:20:26;11.53;;;4.70;;
20711;SDS011;10517;50.742;4.224;2023-02-07T11:23:10;9.23;;;3.53;;
20711;SDS011;10517;50.742;4.224;2023-02-07T11:25:39;6.37;;;3.23;;
20711;SDS011;10517;50.742;4.224;2023-02-07T11:28:14;11.07;;;3.47;;
20711;SDS011;10517;50.742;4.224;2023-02-07T11:30:52;6.10;;;3.33;;
20711;SDS011;10517;50.742;4.224;2023-02-07T11:33:30;7.43;;;3.73;;
20711;SDS011;10517;50.742;4.224;2023-02-07T11:38:55;8.37;;;3.73;;
20711;SDS011;10517;50.742;4.224;2023-02-07T11:41:24;7.57;;;3.50;;
20711;SDS011;10517;50.742;4.224;2023-02-07T11:44:34;6.83;;;2.70;;
20711;SDS011;10517;50.742;4.224;2023-02-07T11:46:42;5.30;;;2.97;;
20711;SDS011;10517;50.742;4.224;2023-02-07T11:49:23;5.47;;;2.93;;
20711;SDS011;10517;50.742;4.224;2023-02-07T11:51:55;9.70;;;2.90;;
20711;SDS011;10517;50.742;4.224;2023-02-07T11:54:24;8.90;;;3.43;;
20711;SDS011;10517;50.742;4.224;2023-02-07T11:56:51;5.40;;;3.00;;
20711;SDS011;10517;50.742;4.224;2023-02-07T11:59:24;4.87;;;2.87;;
20711;SDS011;10517;50.742;4.224;2023-02-07T12:01:56;6.10;;;2.73;;
20711;SDS011;10517;50.742;4.224;2023-02-07T12:04:27;11.83;;;3.47;;
20711;SDS011;10517;50.742;4.224;2023-02-07T12:07:17;6.03;;;2.87;;
20711;SDS011;10517;50.742;4.224;2023-02-07T12:15:21;6.67;;;3.00;;
20711;SDS011;10517;50.742;4.224;2023-02-07T12:20:36;7.17;;;2.50;;
20711;SDS011;10517;50.742;4.224;2023-02-07T12:26:05;7.77;;;3.40;;
20711;SDS011;10517;50.742;4.224;2023-02-07T12:31:36;9.43;;;3.20;;
20711;SDS011;10517;50.742;4.224;2023-02-07T12:34:13;6.60;;;3.00;;
20711;SDS011;10517;50.742;4.224;2023-02-07T12:36:50;8.40;;;3.23;;
20711;SDS011;10517;50.742;4.224;2023-02-07T12:39:28;5.60;;;2.80;;
20711;SDS011;10517;50.742;4.224;2023-02-07T12:44:51;7.37;;;2.70;;
20711;SDS011;10517;50.742;4.224;2023-02-07T12:50:25;7.57;;;2.57;;
20711;SDS011;10517;50.742;4.224;2023-02-07T13:02:19;3.60;;;2.07;;
20711;SDS011;10517;50.742;4.224;2023-02-07T13:07:27;6.47;;;3.13;;
20711;SDS011;10517;50.742;4.224;2023-02-07T13:18:17;8.00;;;2.77;;
20711;SDS011;10517;50.742;4.224;2023-02-07T13:23:50;4.67;;;2.37;;
20711;SDS011;10517;50.742;4.224;2023-02-07T13:26:20;11.73;;;2.23;;
20711;SDS011;10517;50.742;4.224;2023-02-07T13:28:57;6.60;;;2.90;;
20711;SDS011;10517;50.742;4.224;2023-02-07T13:31:32;4.60;;;2.40;;
20711;SDS011;10517;50.742;4.224;2023-02-07T13:34:10;4.20;;;2.10;;
20711;SDS011;10517;50.742;4.224;2023-02-07T13:36:41;2.50;;;2.00;;
20711;SDS011;10517;50.742;4.224;2023-02-07T13:39:19;5.90;;;2.57;;
20711;SDS011;10517;50.742;4.224;2023-02-07T13:42:05;3.23;;;2.07;;
20711;SDS011;10517;50.742;4.224;2023-02-07T13:53:16;3.63;;;1.70;;
20711;SDS011;10517;50.742;4.224;2023-02-07T13:55:48;5.18;;;2.50;;
20711;SDS011;10517;50.742;4.224;2023-02-07T14:01:19;4.03;;;2.33;;
20711;SDS011;10517;50.742;4.224;2023-02-07T14:04:07;5.93;;;2.42;;
20711;SDS011;10517;50.742;4.224;2023-02-07T14:06:36;5.82;;;2.03;;
20711;SDS011;10517;50.742;4.224;2023-02-07T14:14:26;6.65;;;2.90;;
20711;SDS011;10517;50.742;4.224;2023-02-07T14:19:54;5.63;;;2.45;;
20711;SDS011;10517;50.742;4.224;2023-02-07T14:27:34;8.27;;;2.95;;
20711;SDS011;10517;50.742;4.224;2023-02-07T14:38:32;3.13;;;1.80;;
20711;SDS011;10517;50.742;4.224;2023-02-07T14:41:03;4.72;;;2.30;;
20711;SDS011;10517;50.742;4.224;2023-02-07T14:43:46;3.15;;;2.03;;
20711;SDS011;10517;50.742;4.224;2023-02-07T14:46:14;5.68;;;2.35;;
20711;SDS011;10517;50.742;4.224;2023-02-07T14:52:04;5.43;;;1.77;;
20711;SDS011;10517;50.742;4.224;2023-02-07T14:54:15;8.83;;;2.30;;
20711;SDS011;10517;50.742;4.224;2023-02-07T15:02:53;4.00;;;1.77;;
20711;SDS011;10517;50.742;4.224;2023-02-07T15:05:26;5.70;;;2.33;;
20711;SDS011;10517;50.742;4.224;2023-02-07T15:08:03;3.60;;;1.93;;
20711;SDS011;10517;50.742;4.224;2023-02-07T15:10:36;2.27;;;1.73;;
20711;SDS011;10517;50.742;4.224;2023-02-07T15:13:06;3.03;;;1.97;;
20711;SDS011;10517;50.742;4.224;2023-02-07T15:15:48;3.70;;;2.07;;
20711;SDS011;10517;50.742;4.224;2023-02-07T15:18:45;4.90;;;2.03;;
20711;SDS011;10517;50.742;4.224;2023-02-07T15:21:22;2.97;;;1.97;;
20711;SDS011;10517;50.742;4.224;2023-02-07T15:24:06;5.67;;;2.77;;
20711;SDS011;10517;50.742;4.224;2023-02-07T15:26:39;5.60;;;2.13;;
20711;SDS011;10517;50.742;4.224;2023-02-07T15:29:06;4.60;;;2.23;;
20711;SDS011;10517;50.742;4.224;2023-02-07T15:31:43;2.50;;;2.07;;
20711;SDS011;10517;50.742;4.224;2023-02-07T15:34:19;4.33;;;2.03;;
20711;SDS011;10517;50.742;4.224;2023-02-07T15:36:48;5.70;;;2.73;;
20711;SDS011;10517;50.742;4.224;2023-02-07T15:39:16;4.03;;;1.70;;
20711;SDS011;10517;50.742;4.224;2023-02-07T15:41:45;4.83;;;2.50;;
20711;SDS011;10517;50.742;4.224;2023-02-07T15:44:32;5.93;;;2.83;;
20711;SDS011;10517;50.742;4.224;2023-02-07T15:47:11;6.83;;;2.03;;
20711;SDS011;10517;50.742;4.224;2023-02-07T15:50:02;6.80;;;1.77;;
20711;SDS011;10517;50.742;4.224;2023-02-07T15:52:33;2.63;;;1.63;;
20711;SDS011;10517;50.742;4.224;2023-02-07T15:55:12;4.83;;;2.17;;
20711;SDS011;10517;50.742;4.224;2023-02-07T15:58:00;2.27;;;1.63;;
20711;SDS011;10517;50.742;4.224;2023-02-07T16:00:30;3.40;;;2.03;;
20711;SDS011;10517;50.742;4.224;2023-02-07T16:03:05;7.57;;;2.43;;
20711;SDS011;10517;50.742;4.224;2023-02-07T16:05:36;3.40;;;2.20;;
20711;SDS011;10517;50.742;4.224;2023-02-07T16:08:24;2.93;;;1.90;;
20711;SDS011;10517;50.742;4.224;2023-02-07T16:16:53;4.63;;;2.17;;
20711;SDS011;10517;50.742;4.224;2023-02-07T16:19:25;4.07;;;2.07;;
20711;SDS011;10517;50.742;4.224;2023-02-07T16:22:05;3.37;;;2.00;;
20711;SDS011;10517;50.742;4.224;2023-02-07T16:24:35;5.03;;;2.37;;
20711;SDS011;10517;50.742;4.224;2023-02-07T16:27:04;6.03;;;2.43;;
20711;SDS011;10517;50.742;4.224;2023-02-07T16:29:30;4.40;;;2.37;;
20711;SDS011;10517;50.742;4.224;2023-02-07T16:31:57;5.40;;;2.40;;
20711;SDS011;10517;50.742;4.224;2023-02-07T16:34:23;6.07;;;2.30;;
20711;SDS011;10517;50.742;4.224;2023-02-07T16:36:49;4.37;;;2.67;;
20711;SDS011;10517;50.742;4.224;2023-02-07T16:39:17;3.83;;;2.47;;
20711;SDS011;10517;50.742;4.224;2023-02-07T16:41:43;6.40;;;2.73;;
20711;SDS011;10517;50.742;4.224;2023-02-07T16:44:13;6.37;;;2.90;;
20711;SDS011;10517;50.742;4.224;2023-02-07T16:46:43;6.53;;;3.00;;
20711;SDS011;10517;50.742;4.224;2023-02-07T16:49:13;5.90;;;3.37;;
20711;SDS011;10517;50.742;4.224;2023-02-07T16:51:40;5.17;;;3.00;;
20711;SDS011;10517;50.742;4.224;2023-02-07T16:54:05;3.70;;;2.40;;
20711;SDS011;10517;50.742;4.224;2023-02-07T16:56:31;9.20;;;5.90;;
20711;SDS011;10517;50.742;4.224;2023-02-07T16:58:57;8.10;;;4.23;;
20711;SDS011;10517;50.742;4.224;2023-02-07T17:01:23;5.47;;;3.33;;
20711;SDS011;10517;50.742;4.224;2023-02-07T17:03:48;4.33;;;3.03;;
20711;SDS011;10517;50.742;4.224;2023-02-07T17:06:15;6.33;;;3.00;;
20711;SDS011;10517;50.742;4.224;2023-02-07T17:08:42;6.27;;;3.30;;
20711;SDS011;10517;50.742;4.224;2023-02-07T17:11:11;5.30;;;2.67;;
20711;SDS011;10517;50.742;4.224;2023-02-07T17:13:39;5.13;;;3.17;;
20711;SDS011;10517;50.742;4.224;2023-02-07T17:16:08;5.10;;;3.00;;
20711;SDS011;10517;50.742;4.224;2023-02-07T17:18:40;6.90;;;3.17;;
20711;SDS011;10517;50.742;4.224;2023-02-07T17:21:06;6.90;;;3.77;;
20711;SDS011;10517;50.742;4.224;2023-02-07T17:23:37;4.90;;;2.63;;
20711;SDS011;10517;50.742;4.224;2023-02-07T17:26:02;5.20;;;2.73;;
20711;SDS011;10517;50.742;4.224;2023-02-07T17:28:29;4.73;;;2.80;;
20711;SDS011;10517;50.742;4.224;2023-02-07T17:30:56;11.23;;;4.20;;
20711;SDS011;10517;50.742;4.224;2023-02-07T17:33:22;7.37;;;3.73;;
20711;SDS011;10517;50.742;4.224;2023-02-07T17:35:47;13.57;;;3.77;;
20711;SDS011;10517;50.742;4.224;2023-02-07T17:38:14;5.20;;;3.27;;